Time;durP1;ratioP1;P1;durP2;ratioP2;P2;SDS_P1;SDS_P2;PMS_P1;PMS_P2;Temp;Humidity;BMP_temperature;BMP_pressure;BME280_temperature;BME280_humidity;BME280_pressure;Samples;Min_cycle;Max_cycle;Signal;HPM_P1;HPM_P2
2023/12/23 00:00:53;;;;;;;11.43;1.42;;;6.70;99.90;;;;;;5075625;28;20039;-78
2023/12/23 00:03:19;;;;;;;7.10;0.82;;;6.70;99.90;;;;;;5059046;28;20032;-78
2023/12/23 00:05:47;;;;;;;15.05;1.73;;;6.60;99.90;;;;;;5077115;28;20031;-79
2023/12/23 00:08:14;;;;;;;17.42;1.23;;;6.60;99.90;;;;;;5082721;28;20032;-79
2023/12/23 00:10:40;;;;;;;14.63;1.20;;;6.60;99.90;;;;;;5076045;28;20028;-77
2023/12/23 00:13:06;;;;;;;10.90;1.17;;;6.70;99.90;;;;;;5073600;28;20038;-76
2023/12/23 00:15:32;;;;;;;9.60;0.70;;;6.70;99.90;;;;;;5095171;28;20039;-75
2023/12/23 00:17:59;;;;;;;11.68;1.52;;;6.70;99.90;;;;;;5093709;28;20039;-79
2023/12/23 00:20:25;;;;;;;17.20;1.45;;;6.80;99.90;;;;;;5073314;28;20039;-80
2023/12/23 00:22:51;;;;;;;6.78;1.02;;;6.80;99.90;;;;;;5072470;28;20549;-77
2023/12/23 00:25:18;;;;;;;14.38;1.40;;;6.80;99.90;;;;;;5074874;28;20032;-79
2023/12/23 00:27:44;;;;;;;12.43;1.20;;;6.80;99.90;;;;;;5075994;28;20501;-73
2023/12/23 00:30:13;;;;;;;15.90;1.48;;;6.80;99.90;;;;;;5060371;28;20401;-78
2023/12/23 00:32:44;;;;;;;10.52;1.02;;;6.90;99.90;;;;;;5058874;28;20051;-78
2023/12/23 00:35:10;;;;;;;15.90;1.10;;;6.80;99.90;;;;;;5088098;27;20390;-79
2023/12/23 00:37:37;;;;;;;16.50;1.08;;;6.90;99.90;;;;;;5071489;28;20627;-73
2023/12/23 00:40:03;;;;;;;7.93;1.10;;;6.90;99.90;;;;;;5093586;28;20486;-74
2023/12/23 00:42:30;;;;;;;16.27;1.35;;;6.80;99.90;;;;;;5060317;28;20035;-77
2023/12/23 00:45:07;;;;;;;10.88;0.80;;;6.80;99.90;;;;;;5045217;28;20254;-77
2023/12/23 00:47:33;;;;;;;6.50;0.73;;;6.80;99.90;;;;;;5028839;28;20060;-77
2023/12/23 00:50:01;;;;;;;14.93;0.85;;;6.80;99.90;;;;;;5025287;28;20037;-77
2023/12/23 00:52:28;;;;;;;13.38;0.90;;;6.80;99.90;;;;;;5025680;28;20634;-77
2023/12/23 00:54:55;;;;;;;10.20;0.90;;;6.80;99.90;;;;;;5027176;28;20040;-75
2023/12/23 00:57:21;;;;;;;13.93;0.90;;;6.80;99.90;;;;;;5012707;28;20037;-76
2023/12/23 00:59:47;;;;;;;16.90;1.33;;;6.90;99.90;;;;;;5011906;28;20033;-76
2023/12/23 01:02:14;;;;;;;15.43;1.10;;;6.90;99.90;;;;;;5027176;28;20421;-75
2023/12/23 01:04:41;;;;;;;8.88;0.80;;;6.90;99.90;;;;;;5028390;28;20268;-76
2023/12/23 01:07:07;;;;;;;7.05;0.80;;;6.90;99.90;;;;;;5028758;28;20374;-78
2023/12/23 01:09:33;;;;;;;11.00;0.70;;;6.90;99.90;;;;;;5012294;28;20029;-72
2023/12/23 01:12:00;;;;;;;9.02;0.95;;;6.90;99.90;;;;;;5029531;28;20033;-76
2023/12/23 01:14:26;;;;;;;5.53;0.60;;;6.90;99.90;;;;;;5028582;28;20048;-77
2023/12/23 01:16:52;;;;;;;5.47;0.80;;;6.90;99.90;;;;;;5010537;28;20041;-78
2023/12/23 01:19:19;;;;;;;13.48;1.05;;;6.90;99.90;;;;;;5011468;28;20033;-77
2023/12/23 01:21:45;;;;;;;5.88;0.60;;;6.90;99.90;;;;;;5027852;28;20041;-73
2023/12/23 01:24:11;;;;;;;3.67;0.40;;;6.90;99.90;;;;;;5026093;28;20037;-77
2023/12/23 01:26:38;;;;;;;8.80;0.95;;;6.90;99.90;;;;;;4994406;28;20042;-79
2023/12/23 01:29:04;;;;;;;8.40;0.70;;;7.00;99.90;;;;;;5027772;28;20033;-76
2023/12/23 01:31:30;;;;;;;5.88;0.60;;;7.00;99.90;;;;;;5025765;28;20037;-76
2023/12/23 01:33:58;;;;;;;6.65;0.50;;;7.00;99.90;;;;;;5029483;28;20037;-79
2023/12/23 01:36:24;;;;;;;10.13;0.82;;;7.00;99.90;;;;;;5011673;28;20037;-78
2023/12/23 01:38:51;;;;;;;6.95;0.88;;;7.00;99.90;;;;;;5028486;28;20404;-78
2023/12/23 01:41:17;;;;;;;10.82;1.02;;;7.00;99.90;;;;;;5012840;28;20056;-76
2023/12/23 01:43:46;;;;;;;6.78;0.90;;;7.00;99.90;;;;;;5028073;28;20049;-77
2023/12/23 01:46:12;;;;;;;9.90;0.77;;;7.00;99.90;;;;;;4996980;28;20485;-79
2023/12/23 01:48:41;;;;;;;11.25;1.10;;;7.00;99.90;;;;;;5027823;28;20048;-79
2023/12/23 01:51:09;;;;;;;8.90;0.75;;;7.10;99.90;;;;;;5011838;28;20412;-78
2023/12/23 01:53:36;;;;;;;11.00;0.70;;;7.10;99.90;;;;;;5027881;28;20378;-79
2023/12/23 01:56:03;;;;;;;9.95;0.77;;;7.10;99.90;;;;;;5032267;28;20037;-78
2023/12/23 01:58:29;;;;;;;14.52;1.10;;;7.10;99.90;;;;;;5014655;28;20511;-79
2023/12/23 02:00:56;;;;;;;8.00;1.10;;;7.10;99.90;;;;;;5031022;28;20034;-78
2023/12/23 02:03:23;;;;;;;12.93;1.02;;;7.10;99.90;;;;;;4982072;28;21043;-74
2023/12/23 02:05:49;;;;;;;14.10;1.10;;;7.10;99.90;;;;;;5000678;28;20034;-76
2023/12/23 02:08:16;;;;;;;9.02;0.82;;;7.10;99.90;;;;;;5000493;28;20044;-76
2023/12/23 02:10:42;;;;;;;12.60;0.98;;;7.10;99.90;;;;;;4998771;28;20034;-78
2023/12/23 02:13:25;;;;;;;11.50;0.95;;;7.10;99.90;;;;;;5014972;28;20044;-76
2023/12/23 02:15:52;;;;;;;11.55;1.27;;;7.20;99.90;;;;;;5017313;28;20046;-80
2023/12/23 02:18:19;;;;;;;9.15;0.85;;;7.20;99.90;;;;;;4996695;28;20931;-77
2023/12/23 02:20:50;;;;;;;8.30;0.73;;;7.20;99.90;;;;;;4997431;28;20029;-79
2023/12/23 02:23:17;;;;;;;14.95;3.60;;;7.20;99.90;;;;;;4996277;28;20037;-78
2023/12/23 02:25:56;;;;;;;9.13;1.77;;;7.20;99.90;;;;;;5014465;28;20046;-81
2023/12/23 02:28:24;;;;;;;9.77;1.88;;;7.20;99.90;;;;;;4998886;28;20041;-83
2023/12/23 02:30:52;;;;;;;6.68;0.82;;;7.20;99.90;;;;;;5017351;28;20037;-77
2023/12/23 02:33:19;;;;;;;8.07;1.10;;;7.30;99.90;;;;;;4999908;28;20045;-82
2023/12/23 02:35:52;;;;;;;8.65;0.90;;;7.30;99.90;;;;;;5015057;28;21759;-81
2023/12/23 02:38:22;;;;;;;8.65;1.23;;;7.30;99.90;;;;;;5014404;28;20033;-81
2023/12/23 02:40:48;;;;;;;13.43;1.52;;;7.30;99.90;;;;;;5028173;28;20331;-82
2023/12/23 02:43:15;;;;;;;14.30;1.13;;;7.30;99.90;;;;;;5013285;28;20042;-81
2023/12/23 02:45:42;;;;;;;12.85;1.25;;;7.30;99.90;;;;;;4998306;28;20484;-81
2023/12/23 02:48:09;;;;;;;10.43;0.93;;;7.30;99.90;;;;;;4999963;28;20029;-82
2023/12/23 02:50:35;;;;;;;12.27;0.90;;;7.30;99.90;;;;;;5012700;28;20038;-82
2023/12/23 02:53:02;;;;;;;11.05;1.40;;;7.30;99.90;;;;;;4998340;28;20041;-83
2023/12/23 02:55:31;;;;;;;4.45;0.60;;;7.30;99.90;;;;;;5014106;28;20045;-83
2023/12/23 02:57:57;;;;;;;6.50;0.80;;;7.40;99.90;;;;;;5011631;28;20496;-87
2023/12/23 03:00:24;;;;;;;8.68;0.90;;;7.40;99.90;;;;;;5013338;28;20044;-85
2023/12/23 03:02:50;;;;;;;6.50;1.00;;;7.40;99.90;;;;;;5016980;28;20040;-85
2023/12/23 03:05:17;;;;;;;8.18;0.80;;;7.40;99.90;;;;;;4996449;28;20124;-83
2023/12/23 03:07:43;;;;;;;4.72;1.50;;;7.40;99.90;;;;;;5015222;28;20045;-91
2023/12/23 03:10:09;;;;;;;6.82;0.90;;;7.40;99.90;;;;;;5019968;28;20606;-87
2023/12/23 03:12:36;;;;;;;10.65;2.00;;;7.50;99.90;;;;;;5017521;28;20045;-92
2023/12/23 03:15:02;;;;;;;8.95;1.63;;;7.50;99.90;;;;;;5019212;28;20429;-91
2023/12/23 03:17:29;;;;;;;12.00;3.38;;;7.50;99.90;;;;;;5017413;28;20030;-84
2023/12/23 03:19:55;;;;;;;9.18;3.33;;;7.50;99.90;;;;;;5018322;28;20045;-90
2023/12/23 03:22:22;;;;;;;12.82;4.35;;;7.50;99.90;;;;;;5004552;28;20097;-90
2023/12/23 03:24:48;;;;;;;22.55;7.18;;;7.50;99.90;;;;;;5016479;28;20048;-93
2023/12/23 03:27:18;;;;;;;16.95;7.40;;;7.60;99.90;;;;;;5002863;28;20045;-92
2023/12/23 03:29:45;;;;;;;20.02;8.93;;;7.60;99.90;;;;;;5000553;28;20480;-87
2023/12/23 03:32:11;;;;;;;15.73;7.75;;;7.70;99.90;;;;;;5014618;28;20044;-84
2023/12/23 03:34:39;;;;;;;23.73;9.00;;;7.80;99.90;;;;;;5015699;28;20041;-83
2023/12/23 03:37:06;;;;;;;22.75;9.88;;;7.90;99.90;;;;;;4998359;28;20029;-85
2023/12/23 03:39:32;;;;;;;29.17;11.25;;;7.90;99.90;;;;;;5012540;28;20396;-75
2023/12/23 03:41:59;;;;;;;29.35;10.80;;;8.00;99.90;;;;;;5014647;28;20397;-84
2023/12/23 03:44:25;;;;;;;26.20;11.98;;;8.10;99.90;;;;;;4993150;28;20030;-83
2023/12/23 03:46:51;;;;;;;28.65;12.32;;;8.20;99.90;;;;;;4993244;28;20372;-81
2023/12/23 03:49:17;;;;;;;29.20;12.77;;;8.20;99.90;;;;;;5020398;28;20026;-81
2023/12/23 03:51:44;;;;;;;24.75;10.73;;;8.20;99.90;;;;;;5012824;28;20033;-76
2023/12/23 03:54:10;;;;;;;21.63;10.50;;;8.30;99.90;;;;;;5023605;28;20044;-81
2023/12/23 03:56:37;;;;;;;20.88;9.30;;;8.30;99.90;;;;;;4979941;28;20488;-81
2023/12/23 03:59:03;;;;;;;23.70;9.57;;;8.40;99.90;;;;;;4980220;28;20029;-80
2023/12/23 04:01:29;;;;;;;20.20;7.75;;;8.40;99.90;;;;;;4999705;28;20022;-78
2023/12/23 04:03:55;;;;;;;22.83;7.20;;;8.40;99.90;;;;;;4997487;28;20045;-72
2023/12/23 04:06:22;;;;;;;19.95;6.32;;;8.40;99.90;;;;;;5011906;28;20538;-78
2023/12/23 04:08:49;;;;;;;22.58;5.90;;;8.40;99.90;;;;;;5006306;28;20041;-78
2023/12/23 04:11:15;;;;;;;24.13;5.63;;;8.40;99.90;;;;;;4993080;28;20481;-75
2023/12/23 04:13:41;;;;;;;22.10;6.32;;;8.50;99.90;;;;;;5012980;28;20064;-77
2023/12/23 04:16:08;;;;;;;27.05;6.18;;;8.50;99.90;;;;;;5012764;28;20040;-75
2023/12/23 04:18:34;;;;;;;20.77;5.15;;;8.50;99.90;;;;;;4995868;28;21270;-75
2023/12/23 04:21:01;;;;;;;20.20;5.32;;;8.50;99.90;;;;;;4995134;28;20029;-78
2023/12/23 04:23:27;;;;;;;11.30;4.57;;;8.50;99.90;;;;;;4998429;28;20029;-77
2023/12/23 04:25:54;;;;;;;17.30;5.05;;;8.50;99.90;;;;;;4996909;28;20392;-73
2023/12/23 04:28:24;;;;;;;21.23;5.47;;;8.50;99.90;;;;;;5013044;28;20036;-79
2023/12/23 04:30:54;;;;;;;22.00;5.32;;;8.50;99.90;;;;;;5026020;28;20032;-76
2023/12/23 04:33:22;;;;;;;19.95;3.72;;;8.60;99.90;;;;;;4979640;28;20396;-75
2023/12/23 04:35:49;;;;;;;15.27;4.03;;;8.60;99.90;;;;;;5022190;28;20512;-77
2023/12/23 04:38:16;;;;;;;17.63;3.65;;;8.60;99.90;;;;;;5007554;28;20057;-78
2023/12/23 04:40:42;;;;;;;19.63;3.65;;;8.60;99.90;;;;;;5010729;28;20037;-79
2023/12/23 04:43:09;;;;;;;20.33;4.22;;;8.60;99.90;;;;;;5010591;28;20029;-77
2023/12/23 04:45:35;;;;;;;17.52;3.45;;;8.60;99.90;;;;;;4993980;28;20048;-76
2023/12/23 04:48:02;;;;;;;23.25;3.92;;;8.60;99.90;;;;;;5012909;28;20048;-77
2023/12/23 04:50:29;;;;;;;22.10;4.85;;;8.60;99.90;;;;;;4979174;28;21321;-78
2023/12/23 04:52:55;;;;;;;16.48;3.83;;;8.60;99.90;;;;;;5013288;28;20041;-77
2023/12/23 04:55:25;;;;;;;17.58;4.22;;;8.60;99.90;;;;;;4997080;28;20409;-80
2023/12/23 04:57:51;;;;;;;18.27;4.50;;;8.60;99.90;;;;;;4984755;28;20396;-78
2023/12/23 05:00:18;;;;;;;12.88;3.97;;;8.60;99.90;;;;;;4982484;28;20045;-79
2023/12/23 05:02:44;;;;;;;13.63;4.00;;;8.60;99.90;;;;;;5012955;28;20029;-80
2023/12/23 05:05:10;;;;;;;20.75;4.50;;;8.60;99.90;;;;;;5014552;28;20033;-80
2023/12/23 05:07:37;;;;;;;18.55;3.95;;;8.60;99.90;;;;;;4992752;28;20063;-77
2023/12/23 05:10:03;;;;;;;15.38;3.42;;;8.60;99.90;;;;;;5010968;28;20034;-79
2023/12/23 05:12:30;;;;;;;12.57;2.67;;;8.60;99.90;;;;;;4993402;28;20755;-80
2023/12/23 05:14:56;;;;;;;25.15;4.25;;;8.70;99.90;;;;;;5010134;28;20044;-79
2023/12/23 05:17:23;;;;;;;16.88;2.70;;;8.70;99.90;;;;;;5013064;28;20034;-77
2023/12/23 05:19:50;;;;;;;25.63;3.67;;;8.70;99.90;;;;;;5028150;28;20037;-78
2023/12/23 05:22:16;;;;;;;18.05;2.47;;;8.70;99.90;;;;;;4999099;28;20041;-77
2023/12/23 05:24:43;;;;;;;17.65;2.60;;;8.70;99.90;;;;;;4996642;28;20041;-76
2023/12/23 05:27:11;;;;;;;18.27;2.38;;;8.70;99.90;;;;;;5013945;28;20033;-79
2023/12/23 05:29:37;;;;;;;13.30;2.28;;;8.70;99.90;;;;;;5010737;28;20960;-78
2023/12/23 05:32:04;;;;;;;16.05;2.30;;;8.70;99.90;;;;;;5002482;28;20041;-78
2023/12/23 05:34:30;;;;;;;20.65;2.97;;;8.70;99.90;;;;;;5015635;28;20485;-78
2023/12/23 05:36:57;;;;;;;18.10;2.67;;;8.70;99.90;;;;;;5032619;28;20028;-79
2023/12/23 05:39:23;;;;;;;19.30;3.50;;;8.70;99.90;;;;;;5000173;28;20042;-79
2023/12/23 05:41:49;;;;;;;16.20;3.28;;;8.70;99.90;;;;;;5016433;28;20045;-80
2023/12/23 05:44:16;;;;;;;20.13;2.83;;;8.70;99.90;;;;;;4996061;28;20373;-81
2023/12/23 05:46:42;;;;;;;13.85;2.47;;;8.70;99.90;;;;;;5016042;28;20456;-83
2023/12/23 05:49:08;;;;;;;20.83;3.00;;;8.70;99.90;;;;;;5013867;28;20484;-80
2023/12/23 05:51:34;;;;;;;19.40;3.20;;;8.70;99.90;;;;;;5013929;28;20045;-79
2023/12/23 05:54:01;;;;;;;18.15;3.38;;;8.70;99.90;;;;;;5003655;28;20044;-82
2023/12/23 05:56:27;;;;;;;13.13;2.88;;;8.70;99.90;;;;;;5014476;28;20388;-79
2023/12/23 05:58:56;;;;;;;14.95;2.70;;;8.70;99.90;;;;;;5014945;28;20018;-80
2023/12/23 06:01:22;;;;;;;23.52;3.17;;;8.70;99.90;;;;;;5002311;28;20488;-82
2023/12/23 06:03:48;;;;;;;22.23;3.55;;;8.70;99.90;;;;;;5014733;28;20508;-81
2023/12/23 06:06:15;;;;;;;19.65;3.03;;;8.70;99.90;;;;;;5012868;28;20480;-79
2023/12/23 06:08:41;;;;;;;20.05;3.10;;;8.70;99.90;;;;;;4999768;28;20034;-81
2023/12/23 06:11:10;;;;;;;20.38;3.78;;;8.70;99.90;;;;;;5013411;28;20041;-80
2023/12/23 06:13:37;;;;;;;17.20;2.85;;;8.70;99.90;;;;;;5016087;28;20029;-79
2023/12/23 06:16:07;;;;;;;21.92;3.10;;;8.70;99.90;;;;;;5016151;28;20044;-79
2023/12/23 06:18:33;;;;;;;15.40;3.00;;;8.70;99.90;;;;;;5015675;28;20026;-78
2023/12/23 06:21:00;;;;;;;16.42;2.95;;;8.70;99.90;;;;;;5001662;28;20029;-81
2023/12/23 06:23:26;;;;;;;19.25;2.80;;;8.70;99.90;;;;;;5001891;28;20048;-79
2023/12/23 06:25:52;;;;;;;18.05;2.95;;;8.70;99.90;;;;;;5015664;28;20041;-79
2023/12/23 06:28:19;;;;;;;13.23;3.20;;;8.70;99.90;;;;;;5016221;28;20458;-81
2023/12/23 06:30:45;;;;;;;15.02;3.75;;;8.70;99.90;;;;;;4998904;28;20022;-79
2023/12/23 06:33:11;;;;;;;11.35;2.50;;;8.70;99.90;;;;;;5014648;28;20041;-75
2023/12/23 06:35:37;;;;;;;16.73;3.55;;;8.80;99.90;;;;;;4999923;28;20026;-80
2023/12/23 06:38:04;;;;;;;15.77;2.78;;;8.70;99.90;;;;;;5016186;28;20110;-80
2023/12/23 06:40:30;;;;;;;18.13;2.90;;;8.80;99.90;;;;;;5014743;28;20033;-80
2023/12/23 06:42:56;;;;;;;19.98;3.42;;;8.70;99.90;;;;;;5015573;28;20029;-79
2023/12/23 06:45:22;;;;;;;18.67;2.90;;;8.70;99.90;;;;;;5000245;28;20060;-81
2023/12/23 06:47:49;;;;;;;12.57;2.67;;;8.70;99.90;;;;;;4999591;28;20052;-79
2023/12/23 06:50:15;;;;;;;17.52;3.33;;;8.70;99.90;;;;;;5017618;28;20029;-82
2023/12/23 06:52:42;;;;;;;22.85;3.65;;;8.80;99.90;;;;;;5016879;28;20362;-83
2023/12/23 06:55:09;;;;;;;17.83;3.28;;;8.80;99.90;;;;;;5001682;28;20060;-82
2023/12/23 06:57:35;;;;;;;20.90;3.60;;;8.80;99.90;;;;;;4997358;28;20022;-74
2023/12/23 07:00:01;;;;;;;19.40;3.58;;;8.80;99.90;;;;;;4998604;28;20029;-79
2023/12/23 07:02:28;;;;;;;18.63;2.88;;;8.80;99.90;;;;;;4995565;28;20048;-81
2023/12/23 07:04:54;;;;;;;17.35;3.42;;;8.80;99.90;;;;;;5012708;28;20044;-81
2023/12/23 07:07:20;;;;;;;13.07;2.70;;;8.80;99.90;;;;;;5012754;28;20033;-78
2023/12/23 07:09:47;;;;;;;17.83;2.80;;;8.80;99.90;;;;;;5011814;28;20040;-74
2023/12/23 07:12:13;;;;;;;11.70;2.55;;;8.80;99.90;;;;;;5014870;28;20025;-79
2023/12/23 07:14:39;;;;;;;17.92;3.15;;;8.80;99.90;;;;;;5015893;28;20030;-79
2023/12/23 07:17:05;;;;;;;14.52;3.05;;;8.80;99.90;;;;;;5016129;28;20037;-77
2023/12/23 07:19:32;;;;;;;20.23;3.60;;;8.80;99.90;;;;;;4998400;28;20033;-79
2023/12/23 07:21:58;;;;;;;13.60;3.05;;;8.80;99.90;;;;;;4982110;28;20388;-73
2023/12/23 07:24:24;;;;;;;13.88;3.10;;;8.80;99.90;;;;;;5012079;28;20480;-77
2023/12/23 07:26:51;;;;;;;15.27;2.67;;;8.80;99.90;;;;;;5014012;28;20492;-80
2023/12/23 07:29:18;;;;;;;16.60;4.10;;;8.90;99.90;;;;;;5014536;28;20033;-77
2023/12/23 07:31:45;;;;;;;14.98;2.90;;;8.90;99.90;;;;;;5015021;28;20045;-72
2023/12/23 07:34:11;;;;;;;18.52;3.70;;;8.90;99.90;;;;;;5011736;28;20030;-78
2023/12/23 07:36:37;;;;;;;18.17;3.13;;;8.90;99.90;;;;;;5013078;28;20038;-77
2023/12/23 07:39:05;;;;;;;23.88;3.35;;;8.90;99.90;;;;;;5017151;28;20053;-77
2023/12/23 07:41:31;;;;;;;14.63;2.70;;;8.90;99.90;;;;;;5017293;28;20521;-76
2023/12/23 07:43:57;;;;;;;17.70;2.72;;;8.90;99.90;;;;;;4995928;28;20045;-76
2023/12/23 07:46:23;;;;;;;16.85;3.17;;;8.90;99.90;;;;;;5009758;28;20049;-76
2023/12/23 07:48:50;;;;;;;15.43;3.53;;;9.00;99.90;;;;;;5000729;28;20048;-77
2023/12/23 07:51:19;;;;;;;19.17;3.33;;;9.00;99.90;;;;;;5012086;28;20036;-77
2023/12/23 07:53:46;;;;;;;21.05;3.03;;;9.00;99.90;;;;;;5012683;28;20045;-76
2023/12/23 07:56:12;;;;;;;20.80;3.17;;;9.00;99.90;;;;;;4996981;28;20025;-75
2023/12/23 07:58:39;;;;;;;18.50;3.33;;;9.00;99.90;;;;;;5013494;28;20384;-77
2023/12/23 08:01:05;;;;;;;14.55;3.25;;;9.00;99.90;;;;;;5012873;28;20036;-75
2023/12/23 08:03:31;;;;;;;24.67;3.58;;;9.00;99.90;;;;;;4998082;28;20044;-76
2023/12/23 08:05:58;;;;;;;17.08;2.72;;;9.10;99.90;;;;;;5011222;28;20396;-77
2023/12/23 08:08:24;;;;;;;24.10;4.00;;;9.10;99.90;;;;;;5030001;28;20755;-77
2023/12/23 08:10:52;;;;;;;17.08;2.67;;;9.10;99.90;;;;;;5013831;28;20025;-77
2023/12/23 08:13:20;;;;;;;16.70;2.88;;;9.10;99.90;;;;;;5015505;28;20037;-76
2023/12/23 08:15:46;;;;;;;15.98;1.95;;;9.10;99.90;;;;;;5012988;28;20034;-77
2023/12/23 08:18:13;;;;;;;10.30;2.15;;;9.10;99.90;;;;;;5014537;28;20500;-72
2023/12/23 08:20:39;;;;;;;14.85;2.58;;;9.10;99.90;;;;;;4997510;28;20052;-76
2023/12/23 08:23:05;;;;;;;12.70;2.17;;;9.20;99.90;;;;;;5015906;28;20603;-77
2023/12/23 08:25:32;;;;;;;15.52;2.08;;;9.20;99.90;;;;;;4996947;28;20029;-77
2023/12/23 08:27:58;;;;;;;15.35;2.08;;;9.20;99.90;;;;;;5012038;28;20045;-75
2023/12/23 08:30:24;;;;;;;25.05;2.63;;;9.20;99.90;;;;;;4998176;28;20030;-72
2023/12/23 08:32:50;;;;;;;12.20;1.45;;;9.20;99.90;;;;;;5010747;28;20033;-75
2023/12/23 08:35:17;;;;;;;14.75;2.33;;;9.20;99.90;;;;;;5013454;28;20041;-77
2023/12/23 08:37:43;;;;;;;16.33;2.42;;;9.20;99.90;;;;;;5013786;28;20052;-74
2023/12/23 08:40:10;;;;;;;15.07;1.60;;;9.20;99.90;;;;;;5011768;28;20038;-78
2023/12/23 08:42:37;;;;;;;16.35;2.28;;;9.20;99.90;;;;;;5013562;28;20041;-75
2023/12/23 08:45:04;;;;;;;15.07;2.05;;;9.30;99.90;;;;;;5012661;28;20539;-76
2023/12/23 08:47:30;;;;;;;11.93;2.20;;;9.30;99.90;;;;;;5014054;28;20042;-76
2023/12/23 08:49:56;;;;;;;17.10;2.63;;;9.30;99.90;;;;;;5027309;28;20053;-75
2023/12/23 08:52:23;;;;;;;16.60;2.10;;;9.30;99.90;;;;;;5015052;28;20041;-71
2023/12/23 08:54:49;;;;;;;14.60;2.15;;;9.30;99.90;;;;;;5011971;28;20044;-74
2023/12/23 08:57:15;;;;;;;14.00;2.05;;;9.30;99.90;;;;;;4996890;28;20045;-74
2023/12/23 08:59:41;;;;;;;10.85;1.55;;;9.30;99.90;;;;;;5014366;28;20465;-77
2023/12/23 09:02:08;;;;;;;15.73;2.17;;;9.30;99.90;;;;;;5015624;28;20048;-77
2023/12/23 09:04:35;;;;;;;15.90;1.77;;;9.40;99.90;;;;;;5015067;28;20230;-72
2023/12/23 09:07:02;;;;;;;11.40;1.75;;;9.40;99.90;;;;;;5032476;28;20033;-78
2023/12/23 09:09:28;;;;;;;19.13;2.13;;;9.40;99.90;;;;;;5017559;28;20045;-76
2023/12/23 09:11:54;;;;;;;13.80;2.00;;;9.40;99.90;;;;;;5003955;28;20039;-77
2023/12/23 09:14:21;;;;;;;12.73;1.67;;;9.40;99.90;;;;;;5020642;28;20025;-75
2023/12/23 09:16:47;;;;;;;15.27;1.75;;;9.40;99.90;;;;;;5011314;28;22793;-79
2023/12/23 09:19:14;;;;;;;14.90;2.35;;;9.40;99.90;;;;;;5000029;28;20504;-77
2023/12/23 09:21:40;;;;;;;16.15;1.95;;;9.40;99.90;;;;;;5029661;28;20460;-78
2023/12/23 09:24:06;;;;;;;11.02;1.30;;;9.40;99.90;;;;;;5016735;28;20033;-76
2023/12/23 09:26:33;;;;;;;15.05;1.58;;;9.50;99.90;;;;;;5018545;28;20037;-72
2023/12/23 09:29:00;;;;;;;9.27;1.67;;;9.50;99.90;;;;;;5017984;28;20040;-78
2023/12/23 09:31:26;;;;;;;11.65;1.40;;;9.50;99.90;;;;;;5016869;28;20033;-76
2023/12/23 09:33:52;;;;;;;11.20;1.42;;;9.50;99.90;;;;;;5015306;28;20033;-75
2023/12/23 09:36:19;;;;;;;13.25;1.70;;;9.50;99.90;;;;;;5011594;28;20048;-76
2023/12/23 09:38:45;;;;;;;12.68;1.55;;;9.50;99.90;;;;;;4996734;28;20056;-77
2023/12/23 09:41:11;;;;;;;8.98;1.25;;;9.50;99.90;;;;;;5017300;28;20052;-75
2023/12/23 09:43:38;;;;;;;24.35;2.13;;;9.60;99.90;;;;;;5001090;28;20416;-78
2023/12/23 09:46:06;;;;;;;16.77;1.48;;;9.60;99.90;;;;;;5020698;28;20033;-78
2023/12/23 09:48:32;;;;;;;12.75;1.50;;;9.60;99.90;;;;;;5017730;28;20038;-76
2023/12/23 09:50:58;;;;;;;15.43;1.52;;;9.60;99.90;;;;;;5017846;28;20437;-79
2023/12/23 09:53:27;;;;;;;10.07;1.60;;;9.60;99.90;;;;;;5000001;28;20044;-78
2023/12/23 09:55:53;;;;;;;12.65;2.13;;;9.60;99.90;;;;;;4999240;28;20508;-76
2023/12/23 09:58:19;;;;;;;12.90;1.60;;;9.60;99.90;;;;;;5016907;28;20029;-78
2023/12/23 10:00:45;;;;;;;12.75;1.75;;;9.60;99.90;;;;;;5020843;28;20041;-79
2023/12/23 10:03:12;;;;;;;13.60;1.95;;;9.60;99.90;;;;;;5016081;28;20033;-79
2023/12/23 10:05:42;;;;;;;15.32;1.45;;;9.60;99.90;;;;;;5018191;28;20041;-78
2023/12/23 10:08:08;;;;;;;11.32;1.50;;;9.60;99.90;;;;;;5000696;28;20029;-76
2023/12/23 10:10:35;;;;;;;13.90;1.90;;;9.60;99.90;;;;;;5016457;28;20037;-76
2023/12/23 10:13:01;;;;;;;12.50;1.63;;;9.60;99.90;;;;;;5014912;28;20033;-77
2023/12/23 10:15:27;;;;;;;11.48;1.52;;;9.60;99.90;;;;;;5018884;28;20627;-80
2023/12/23 10:17:54;;;;;;;10.15;1.75;;;9.60;99.90;;;;;;5016286;28;20035;-78
2023/12/23 10:20:20;;;;;;;13.10;1.52;;;9.60;99.90;;;;;;4996682;28;20029;-80
2023/12/23 10:22:47;;;;;;;10.40;1.52;;;9.70;99.90;;;;;;5000652;28;20040;-80
2023/12/23 10:25:14;;;;;;;12.45;1.73;;;9.70;99.90;;;;;;5013982;28;20409;-77
2023/12/23 10:27:41;;;;;;;11.68;1.55;;;9.70;99.90;;;;;;5014538;28;20041;-80
2023/12/23 10:30:12;;;;;;;13.52;2.13;;;9.70;99.90;;;;;;4998948;28;20037;-79
2023/12/23 10:32:39;;;;;;;11.73;1.80;;;9.70;99.90;;;;;;5016627;28;20022;-80
2023/12/23 10:35:07;;;;;;;9.95;1.52;;;9.70;99.90;;;;;;5016293;28;20021;-73
2023/12/23 10:37:34;;;;;;;11.32;1.65;;;9.70;99.90;;;;;;5016407;28;20024;-79
2023/12/23 10:40:11;;;;;;;12.27;1.38;;;9.70;99.90;;;;;;4998440;28;20037;-79
2023/12/23 10:42:39;;;;;;;11.27;1.23;;;9.70;99.90;;;;;;5016940;28;20062;-78
2023/12/23 10:45:07;;;;;;;10.63;1.58;;;9.70;99.90;;;;;;4997772;28;20040;-77
2023/12/23 10:47:34;;;;;;;14.63;1.63;;;9.70;99.90;;;;;;5026173;28;20049;-79
2023/12/23 10:50:01;;;;;;;12.55;1.27;;;9.70;99.90;;;;;;5000213;28;20041;-76
2023/12/23 10:52:29;;;;;;;10.27;1.50;;;9.80;99.90;;;;;;4999790;28;20039;-77
2023/12/23 10:54:56;;;;;;;10.00;1.10;;;9.80;99.90;;;;;;5012399;28;20044;-81
2023/12/23 10:57:22;;;;;;;13.05;1.80;;;9.80;99.90;;;;;;5014537;28;20029;-77
2023/12/23 10:59:49;;;;;;;13.35;1.38;;;9.80;99.90;;;;;;5014049;28;20370;-80
2023/12/23 11:02:19;;;;;;;15.27;2.50;;;9.80;99.90;;;;;;4982436;28;20041;-81
2023/12/23 11:04:49;;;;;;;13.35;1.63;;;9.80;99.90;;;;;;4998638;28;20038;-82
2023/12/23 11:07:19;;;;;;;9.70;1.67;;;9.80;99.90;;;;;;5013350;28;20503;-75
2023/12/23 11:09:48;;;;;;;9.43;1.50;;;9.90;99.90;;;;;;5013841;28;20048;-76
2023/12/23 11:12:17;;;;;;;9.32;1.10;;;9.90;99.90;;;;;;5012682;28;20041;-78
2023/12/23 11:14:43;;;;;;;9.25;1.45;;;9.90;99.90;;;;;;5014683;28;20029;-79
2023/12/23 11:17:30;;;;;;;9.20;2.22;;;9.90;99.90;;;;;;4996339;28;20350;-81
2023/12/23 11:19:59;;;;;;;14.95;1.35;;;9.90;99.90;;;;;;5030793;28;20032;-74
2023/12/23 11:22:27;;;;;;;8.15;1.38;;;10.00;99.90;;;;;;5024873;28;20059;-82
2023/12/23 11:24:54;;;;;;;9.32;1.15;;;10.00;99.90;;;;;;4981623;28;20344;-80
2023/12/23 11:27:37;;;;;;;13.93;1.25;;;10.00;99.90;;;;;;5010965;28;20062;-79
2023/12/23 11:30:04;;;;;;;7.28;1.05;;;10.00;99.90;;;;;;5016732;28;20144;-76
2023/12/23 11:32:33;;;;;;;8.48;0.90;;;10.10;99.90;;;;;;5015398;28;20029;-77
2023/12/23 11:35:00;;;;;;;11.73;1.67;;;10.10;99.90;;;;;;4994642;28;20038;-79
2023/12/23 11:37:53;;;;;;;8.15;1.27;;;10.10;99.90;;;;;;5013817;28;20036;-82
2023/12/23 11:40:20;;;;;;;8.38;0.90;;;10.10;99.90;;;;;;5033483;28;20033;-80
2023/12/23 11:42:48;;;;;;;3.33;0.77;;;10.20;99.90;;;;;;5021443;28;20027;-81
2023/12/23 11:45:15;;;;;;;13.60;1.67;;;10.20;99.90;;;;;;5019163;28;20044;-72
2023/12/23 11:47:42;;;;;;;8.07;0.80;;;10.20;99.90;;;;;;5011554;28;20073;-81
2023/12/23 11:50:09;;;;;;;10.38;0.90;;;10.20;99.90;;;;;;4995807;28;20037;-77
2023/12/23 11:52:36;;;;;;;11.38;1.38;;;10.30;99.90;;;;;;4998546;28;20049;-73
2023/12/23 11:55:05;;;;;;;11.40;1.10;;;10.30;99.90;;;;;;5017004;28;20029;-79
2023/12/23 11:57:32;;;;;;;10.63;1.20;;;10.30;99.90;;;;;;5013352;28;20022;-78
2023/12/23 11:59:59;;;;;;;9.18;1.10;;;10.30;99.90;;;;;;4994734;28;20622;-83
2023/12/23 12:02:25;;;;;;;9.50;0.85;;;10.40;99.90;;;;;;5014030;28;20026;-81
2023/12/23 12:04:52;;;;;;;14.27;1.48;;;10.40;99.90;;;;;;5014384;28;20044;-79
2023/12/23 12:07:19;;;;;;;8.48;0.90;;;10.50;99.90;;;;;;4995197;28;20030;-81
2023/12/23 12:09:46;;;;;;;7.72;0.93;;;10.50;99.90;;;;;;5001081;28;20045;-82
2023/12/23 12:12:13;;;;;;;7.38;0.80;;;10.50;99.90;;;;;;5016625;28;20033;-82
2023/12/23 12:14:40;;;;;;;7.97;0.70;;;10.50;99.90;;;;;;4999290;28;20499;-78
2023/12/23 12:17:07;;;;;;;10.43;1.98;;;10.50;99.90;;;;;;5009338;28;20036;-81
2023/12/23 12:19:34;;;;;;;7.97;1.38;;;10.60;99.90;;;;;;5012832;28;20038;-80
2023/12/23 12:22:01;;;;;;;8.23;0.70;;;10.50;99.90;;;;;;5012174;28;20488;-78
2023/12/23 12:24:27;;;;;;;8.10;0.95;;;10.60;99.90;;;;;;5013414;28;20033;-79
2023/12/23 12:26:59;;;;;;;5.22;0.57;;;10.50;99.90;;;;;;5011543;28;20049;-83
2023/12/23 12:29:25;;;;;;;5.85;0.70;;;10.60;99.90;;;;;;5014688;28;20048;-78
2023/12/23 12:31:53;;;;;;;6.82;0.88;;;10.60;99.90;;;;;;4999297;28;20044;-78
2023/12/23 12:34:22;;;;;;;8.55;1.17;;;10.60;99.90;;;;;;4996648;28;20042;-80
2023/12/23 12:36:48;;;;;;;6.28;0.82;;;10.60;99.90;;;;;;5012688;28;20500;-83
2023/12/23 12:39:18;;;;;;;6.43;1.05;;;10.70;99.90;;;;;;5012439;28;20034;-83
2023/12/23 12:41:49;;;;;;;7.18;0.60;;;10.70;99.90;;;;;;4997059;28;20033;-80
2023/12/23 12:44:16;;;;;;;7.03;0.80;;;10.70;99.90;;;;;;5011844;28;20484;-82
2023/12/23 12:46:44;;;;;;;6.75;0.75;;;10.70;99.90;;;;;;4994528;28;20044;-81